Time;durP1;ratioP1;P1;durP2;ratioP2;P2;SDS_P1;SDS_P2;PMS_P1;PMS_P2;Temp;Humidity;BMP_temperature;BMP_pressure;BME280_temperature;BME280_humidity;BME280_pressure;Samples;Min_cycle;Max_cycle;Signal;HPM_P1;HPM_P2
2023/11/13 00:00:05;;;;;;;8.40;5.40;;;;;;;6.49;83.53;100953.52;107642;1253;110299;-61
2023/11/13 00:02:56;;;;;;;13.80;5.60;;;;;;;6.46;83.28;100963.52;107567;1251;111096;-60
2023/11/13 00:05:25;;;;;;;9.10;4.90;;;;;;;6.41;83.26;100968.09;107584;1250;107682;-61
2023/11/13 00:07:56;;;;;;;6.90;4.80;;;;;;;6.40;83.35;100969.25;107559;1251;97752;-62
2023/11/13 00:10:24;;;;;;;8.00;5.40;;;;;;;6.37;83.52;100963.88;107622;1251;97834;-62
2023/11/13 00:12:53;;;;;;;9.10;5.20;;;;;;;6.38;83.61;100971.67;107672;1251;111769;-61
2023/11/13 00:15:21;;;;;;;11.20;4.80;;;;;;;6.37;83.68;100973.86;107504;1251;108909;-61
2023/11/13 00:17:50;;;;;;;9.40;5.50;;;;;;;6.37;83.81;100968.88;107637;1256;108023;-60
2023/11/13 00:20:19;;;;;;;6.60;4.60;;;;;;;6.38;83.79;100965.25;107709;1251;97850;-61
2023/11/13 00:22:47;;;;;;;9.00;5.00;;;;;;;6.39;83.57;100967.54;107614;1251;97822;-61
2023/11/13 00:25:16;;;;;;;13.70;5.10;;;;;;;6.37;83.54;100972.64;107550;1251;112081;-62
2023/11/13 00:27:45;;;;;;;9.30;4.10;;;;;;;6.36;83.43;100970.94;107546;1251;110005;-62
2023/11/13 00:30:14;;;;;;;9.60;5.10;;;;;;;6.34;83.59;100978.34;107668;1251;107515;-63
2023/11/13 00:32:43;;;;;;;11.50;4.90;;;;;;;6.31;83.30;100978.05;107582;1250;97831;-61
2023/11/13 00:35:11;;;;;;;9.00;4.70;;;;;;;6.30;83.53;100981.70;107588;1251;97720;-61
2023/11/13 00:37:39;;;;;;;6.70;4.30;;;;;;;6.29;83.59;100979.42;107576;1251;112439;-62
2023/11/13 00:40:08;;;;;;;9.90;5.30;;;;;;;6.28;83.51;100981.45;107590;1251;108490;-62
2023/11/13 00:42:36;;;;;;;10.30;5.10;;;;;;;6.28;83.67;100980.74;107395;1254;107490;-63
2023/11/13 00:45:06;;;;;;;7.50;4.80;;;;;;;6.28;83.70;100975.76;107460;1253;97957;-62
2023/11/13 00:47:36;;;;;;;7.90;4.60;;;;;;;6.28;83.72;100976.66;107584;1251;97843;-62
2023/11/13 00:50:06;;;;;;;8.30;5.10;;;;;;;6.25;83.65;100978.76;107475;1251;110251;-60
2023/11/13 00:52:34;;;;;;;8.30;5.20;;;;;;;6.24;83.73;100977.79;107633;1251;109168;-61
2023/11/13 00:55:04;;;;;;;11.70;5.40;;;;;;;6.23;83.96;100981.06;107615;1251;108304;-62
2023/11/13 00:57:33;;;;;;;11.70;4.80;;;;;;;6.23;83.86;100981.23;107598;1251;97821;-63
2023/11/13 01:00:04;;;;;;;8.50;4.70;;;;;;;6.22;83.70;100984.85;107699;1256;97730;-61
2023/11/13 01:02:32;;;;;;;8.00;4.50;;;;;;;6.23;83.84;100988.20;107533;1254;112207;-62
2023/11/13 01:05:00;;;;;;;12.40;5.80;;;;;;;6.23;83.80;100992.27;107558;1251;109907;-62
2023/11/13 01:07:29;;;;;;;9.90;4.80;;;;;;;6.22;83.96;100989.30;107630;1251;107762;-61
2023/11/13 01:09:57;;;;;;;6.80;4.90;;;;;;;6.22;83.95;100987.21;107663;1251;97834;-62
2023/11/13 01:12:26;;;;;;;8.70;5.20;;;;;;;6.19;83.74;100987.54;107664;1251;97863;-62
2023/11/13 01:14:54;;;;;;;7.60;4.60;;;;;;;6.18;83.88;100990.46;107618;1251;111194;-59
2023/11/13 01:17:24;;;;;;;5.90;3.60;;;;;;;6.16;83.98;100992.55;107577;1250;109851;-61
2023/11/13 01:19:52;;;;;;;6.60;4.00;;;;;;;6.11;83.85;100995.20;107590;1253;107284;-61
2023/11/13 01:22:20;;;;;;;6.50;4.20;;;;;;;6.06;83.82;100994.11;107681;1251;97891;-61
2023/11/13 01:24:50;;;;;;;6.30;3.80;;;;;;;6.02;83.96;100999.21;107558;1251;98482;-62
2023/11/13 01:27:18;;;;;;;8.80;4.50;;;;;;;5.96;83.95;101002.91;107715;1251;111617;-62
2023/11/13 01:29:48;;;;;;;5.60;3.80;;;;;;;5.92;84.08;101006.56;107562;1253;108724;-62
2023/11/13 01:32:17;;;;;;;13.30;4.20;;;;;;;5.87;84.06;101009.37;107386;1259;106074;-62
2023/11/13 01:34:45;;;;;;;9.90;3.50;;;;;;;5.82;84.22;101013.62;107606;1252;97877;-62
2023/11/13 01:37:14;;;;;;;5.90;3.90;;;;;;;5.76;84.07;101015.05;107626;1251;97833;-61
2023/11/13 01:39:43;;;;;;;9.80;4.20;;;;;;;5.72;84.06;101016.38;107650;1251;112264;-62
2023/11/13 01:42:11;;;;;;;9.50;4.30;;;;;;;5.69;84.24;101021.56;107641;1251;110813;-62
2023/11/13 01:44:41;;;;;;;6.50;4.00;;;;;;;5.63;84.22;101025.67;107657;1256;107775;-62
2023/11/13 01:47:10;;;;;;;6.30;3.70;;;;;;;5.60;84.24;101030.80;107609;1251;97831;-62
2023/11/13 01:49:39;;;;;;;7.90;4.10;;;;;;;5.56;84.12;101025.94;107656;1256;97937;-61
2023/11/13 01:52:09;;;;;;;4.80;3.70;;;;;;;5.53;84.05;101029.86;107495;1253;112239;-61
2023/11/13 01:54:37;;;;;;;7.00;4.20;;;;;;;5.50;84.10;101038.96;107472;1253;108906;-61
2023/11/13 01:57:08;;;;;;;5.20;3.30;;;;;;;5.47;83.97;101039.68;107600;1251;109832;-62
2023/11/13 01:59:38;;;;;;;5.90;3.00;;;;;;;5.41;83.97;101035.61;107612;1251;98101;-61
2023/11/13 02:02:07;;;;;;;7.80;3.50;;;;;;;5.36;83.65;101035.39;107471;1253;97819;-61
2023/11/13 02:04:38;;;;;;;10.40;4.00;;;;;;;5.27;83.52;101034.69;107660;1253;112439;-61
2023/11/13 02:07:06;;;;;;;6.20;3.30;;;;;;;5.20;83.68;101037.80;107610;1251;109915;-60
2023/11/13 02:09:36;;;;;;;4.40;3.10;;;;;;;5.16;83.92;101040.70;107577;1251;108122;-62
2023/11/13 02:12:05;;;;;;;4.70;3.40;;;;;;;5.13;83.78;101040.19;107629;1251;97702;-61
2023/11/13 02:14:33;;;;;;;7.20;2.90;;;;;;;5.11;84.14;101047.75;107685;1251;97713;-62
2023/11/13 02:17:07;;;;;;;4.70;3.40;;;;;;;5.09;84.32;101048.07;107660;1251;110713;-63
2023/11/13 02:19:36;;;;;;;6.00;3.50;;;;;;;5.06;84.60;101045.75;107650;1251;109081;-62
2023/11/13 02:22:05;;;;;;;4.80;3.10;;;;;;;5.02;84.12;101046.35;107485;1253;106743;-62
2023/11/13 02:24:34;;;;;;;10.20;3.60;;;;;;;4.96;84.03;101052.40;107490;1253;97990;-63
2023/11/13 02:27:03;;;;;;;8.00;3.10;;;;;;;4.93;84.20;101055.97;107436;1253;98381;-64
2023/11/13 02:29:31;;;;;;;7.30;4.00;;;;;;;4.90;84.16;101055.27;107460;1253;111147;-61
2023/11/13 02:32:01;;;;;;;4.10;2.80;;;;;;;4.85;84.26;101058.70;107614;1253;110059;-62
2023/11/13 02:34:29;;;;;;;8.70;3.00;;;;;;;4.81;84.09;101056.14;107389;1257;108207;-62
2023/11/13 02:36:58;;;;;;;4.70;3.10;;;;;;;4.77;83.87;101059.04;107599;1255;97910;-61
2023/11/13 02:39:26;;;;;;;9.60;3.20;;;;;;;4.71;84.04;101064.36;107617;1251;97926;-61
2023/11/13 02:41:55;;;;;;;9.70;3.20;;;;;;;4.68;84.02;101073.07;107465;1251;112139;-60
2023/11/13 02:44:23;;;;;;;5.80;3.20;;;;;;;4.64;83.79;101075.27;107627;1251;108918;-61
2023/11/13 02:46:51;;;;;;;6.30;2.70;;;;;;;4.62;84.06;101082.13;107598;1253;107525;-62
2023/11/13 02:49:20;;;;;;;4.30;2.70;;;;;;;4.55;83.76;101087.52;107599;1252;97727;-61
2023/11/13 02:51:50;;;;;;;7.90;3.20;;;;;;;4.48;83.80;101088.97;107642;1253;97935;-61
2023/11/13 02:54:20;;;;;;;7.00;3.60;;;;;;;4.44;83.75;101094.02;107684;1250;112145;-61
2023/11/13 02:56:48;;;;;;;4.60;2.80;;;;;;;4.41;83.92;101097.20;107637;1250;110424;-61
2023/11/13 02:59:16;;;;;;;12.70;3.30;;;;;;;4.40;84.34;101098.49;107560;1250;108050;-62
2023/11/13 03:01:45;;;;;;;10.20;3.20;;;;;;;4.38;84.49;101096.64;107566;1251;97839;-63
2023/11/13 03:04:13;;;;;;;6.40;3.10;;;;;;;4.37;84.52;101102.19;107604;1251;97720;-61
2023/11/13 03:06:42;;;;;;;4.90;3.00;;;;;;;4.36;84.41;101100.46;107628;1251;111713;-62
2023/11/13 03:09:10;;;;;;;9.00;3.10;;;;;;;4.34;84.37;101100.60;107593;1251;109924;-61
2023/11/13 03:11:39;;;;;;;5.50;3.10;;;;;;;4.33;84.50;101106.32;107736;1250;107693;-63
2023/11/13 03:14:07;;;;;;;4.70;3.10;;;;;;;4.30;84.03;101106.48;107594;1251;97847;-61
2023/11/13 03:16:36;;;;;;;5.40;3.10;;;;;;;4.24;84.04;101103.98;107600;1250;97867;-62
2023/11/13 03:19:04;;;;;;;4.80;2.60;;;;;;;4.19;83.97;101105.16;107758;1251;111150;-62
2023/11/13 03:21:33;;;;;;;8.10;2.70;;;;;;;4.12;83.77;101103.95;107587;1251;109359;-62
2023/11/13 03:24:01;;;;;;;8.80;2.70;;;;;;;4.05;84.02;101105.22;107534;1251;107673;-62
2023/11/13 03:26:30;;;;;;;3.90;2.80;;;;;;;4.02;84.06;101108.43;107711;1250;97896;-61
2023/11/13 03:28:58;;;;;;;4.10;2.60;;;;;;;3.99;84.03;101108.94;107568;1253;98375;-62
2023/11/13 03:31:27;;;;;;;5.00;2.70;;;;;;;3.97;83.98;101106.95;107472;1253;112336;-62
2023/11/13 03:33:56;;;;;;;8.20;2.80;;;;;;;3.95;84.23;101107.02;107645;1253;108498;-61
2023/11/13 03:36:24;;;;;;;3.70;2.60;;;;;;;3.94;84.02;101106.76;107620;1253;108206;-63
2023/11/13 03:38:52;;;;;;;3.20;2.50;;;;;;;3.91;84.18;101100.50;107650;1251;97947;-64
2023/11/13 03:41:20;;;;;;;5.50;2.70;;;;;;;3.88;83.88;101099.43;107634;1251;97726;-62
2023/11/13 03:43:49;;;;;;;6.00;3.10;;;;;;;3.85;83.80;101099.78;107589;1251;111783;-61
2023/11/13 03:46:17;;;;;;;5.50;2.50;;;;;;;3.82;84.22;101106.50;107573;1253;109280;-62
2023/11/13 03:48:46;;;;;;;6.70;2.60;;;;;;;3.78;84.08;101100.51;107644;1255;106533;-62
2023/11/13 03:51:14;;;;;;;3.80;2.40;;;;;;;3.75;83.98;101100.66;107629;1252;97845;-61
2023/11/13 03:53:47;;;;;;;5.60;3.20;;;;;;;3.71;83.99;101107.09;107663;1251;97814;-61
2023/11/13 03:56:15;;;;;;;4.00;2.40;;;;;;;3.68;84.02;101106.90;107586;1250;111877;-60
2023/11/13 03:58:44;;;;;;;8.90;3.30;;;;;;;3.64;84.05;101103.93;107457;1253;109669;-62
2023/11/13 04:01:14;;;;;;;3.80;2.50;;;;;;;3.59;83.98;101103.12;107611;1253;108678;-63
2023/11/13 04:03:43;;;;;;;4.10;2.60;;;;;;;3.54;84.04;101105.20;107626;1255;97931;-62
2023/11/13 04:06:12;;;;;;;4.20;3.00;;;;;;;3.53;84.38;101108.08;107659;1255;96431;-63
2023/11/13 04:08:41;;;;;;;6.70;3.40;;;;;;;3.52;84.50;101108.84;107638;1251;112028;-63
2023/11/13 04:11:09;;;;;;;4.70;2.90;;;;;;;3.53;84.74;101110.20;107643;1251;109897;-63
2023/11/13 04:13:40;;;;;;;7.50;3.00;;;;;;;3.54;84.69;101114.73;107614;1251;108353;-63
2023/11/13 04:16:08;;;;;;;5.80;2.80;;;;;;;3.56;84.79;101118.16;107622;1251;98224;-63
2023/11/13 04:18:37;;;;;;;7.70;2.90;;;;;;;3.57;84.69;101124.52;107621;1251;97839;-66
2023/11/13 04:21:06;;;;;;;6.30;2.80;;;;;;;3.56;84.57;101130.80;107525;1251;112078;-60
2023/11/13 04:23:35;;;;;;;4.80;3.00;;;;;;;3.53;84.32;101135.38;107618;1251;109032;-62
2023/11/13 04:26:05;;;;;;;5.40;2.80;;;;;;;3.50;84.32;101135.71;107631;1251;108093;-61
2023/11/13 04:28:33;;;;;;;5.70;2.40;;;;;;;3.43;84.22;101140.33;107608;1251;97958;-62
2023/11/13 04:31:08;;;;;;;5.40;2.90;;;;;;;3.35;84.21;101146.59;107615;1252;97887;-61
2023/11/13 04:33:38;;;;;;;3.20;2.60;;;;;;;3.29;84.11;101147.59;107652;1255;111588;-62
2023/11/13 04:36:07;;;;;;;4.60;2.50;;;;;;;3.24;84.23;101151.06;107628;1253;108655;-61
2023/11/13 04:38:40;;;;;;;20.80;3.60;;;;;;;3.22;84.17;101153.12;107595;1251;108285;-61
2023/11/13 04:41:10;;;;;;;8.00;3.00;;;;;;;3.23;84.58;101157.17;107608;1251;97861;-61
2023/11/13 04:43:38;;;;;;;5.30;2.70;;;;;;;3.25;84.83;101161.29;107643;1254;97928;-61
2023/11/13 04:46:07;;;;;;;9.80;3.00;;;;;;;3.26;84.77;101163.21;107501;1252;112247;-61
2023/11/13 04:48:38;;;;;;;12.90;4.50;;;;;;;3.27;84.96;101166.35;107645;1253;108718;-61
2023/11/13 04:51:07;;;;;;;6.10;3.40;;;;;;;3.27;84.92;101164.55;107623;1252;107950;-62
2023/11/13 04:53:35;;;;;;;10.00;4.20;;;;;;;3.28;84.84;101171.21;107609;1253;97823;-62
2023/11/13 04:56:04;;;;;;;6.50;3.90;;;;;;;3.29;84.87;101174.21;107625;1253;98476;-61
2023/11/13 04:58:33;;;;;;;4.40;2.80;;;;;;;3.29;84.76;101175.63;107609;1253;112243;-61
2023/11/13 05:01:02;;;;;;;6.20;2.60;;;;;;;3.29;84.73;101173.48;107579;1251;110152;-62
2023/11/13 05:03:36;;;;;;;4.30;3.50;;;;;;;3.28;84.52;101181.34;107639;1251;107689;-61
2023/11/13 05:06:12;;;;;;;6.00;3.20;;;;;;;3.27;84.31;101188.14;107608;1252;97879;-61
2023/11/13 05:08:43;;;;;;;6.50;3.90;;;;;;;3.24;84.17;101180.83;107627;1254;97829;-60
2023/11/13 05:11:25;;;;;;;5.50;3.20;;;;;;;3.21;84.14;101182.25;107648;1250;110817;-60
2023/11/13 05:13:54;;;;;;;6.50;3.70;;;;;;;3.14;84.24;101184.20;107607;1249;109509;-60
2023/11/13 05:16:24;;;;;;;6.70;4.20;;;;;;;3.06;84.13;101185.86;107571;1251;107655;-60
2023/11/13 05:18:52;;;;;;;20.30;4.80;;;;;;;3.03;84.05;101181.56;107531;1251;97825;-59
2023/11/13 05:21:21;;;;;;;8.80;3.60;;;;;;;3.02;84.58;101186.73;107636;1253;97854;-61
2023/11/13 05:23:50;;;;;;;6.60;3.80;;;;;;;3.04;84.68;101193.21;107644;1252;111980;-59
2023/11/13 05:26:18;;;;;;;4.70;2.90;;;;;;;3.04;84.50;101196.04;107629;1251;109868;-60
2023/11/13 05:28:48;;;;;;;5.60;3.60;;;;;;;3.01;84.47;101199.39;107589;1251;106509;-60
2023/11/13 05:31:17;;;;;;;7.60;3.20;;;;;;;2.98;84.38;101203.06;107582;1252;97912;-60
2023/11/13 05:33:46;;;;;;;17.30;7.30;;;;;;;2.94;84.41;101204.30;107712;1252;98447;-60
2023/11/13 05:36:14;;;;;;;5.10;2.80;;;;;;;2.96;84.76;101211.50;107654;1253;111826;-61
2023/11/13 05:38:43;;;;;;;5.00;3.30;;;;;;;2.99;84.99;101215.23;107596;1255;108947;-59
2023/11/13 05:41:12;;;;;;;4.10;2.90;;;;;;;3.02;85.06;101222.88;107660;1251;108127;-60
2023/11/13 05:43:40;;;;;;;11.70;3.40;;;;;;;3.07;85.34;101224.23;107629;1251;97841;-61
2023/11/13 05:46:08;;;;;;;6.50;3.40;;;;;;;3.09;84.94;101223.05;107586;1253;97747;-59
2023/11/13 05:48:37;;;;;;;6.10;3.60;;;;;;;3.11;84.85;101225.96;107601;1253;111956;-61
2023/11/13 05:51:06;;;;;;;7.40;3.30;;;;;;;3.17;85.27;101229.42;107454;1252;109586;-63
2023/11/13 05:53:34;;;;;;;9.60;3.40;;;;;;;3.19;84.94;101226.86;107597;1253;108567;-59
2023/11/13 05:56:03;;;;;;;7.90;3.60;;;;;;;3.22;85.18;101232.33;107632;1251;97919;-60
2023/11/13 05:58:32;;;;;;;10.60;4.00;;;;;;;3.27;85.16;101232.25;107632;1251;97918;-60
2023/11/13 06:01:00;;;;;;;7.30;4.30;;;;;;;3.36;85.18;101229.54;107630;1251;111756;-60
2023/11/13 06:03:29;;;;;;;11.20;5.60;;;;;;;3.43;85.17;101226.67;107601;1251;109379;-60
2023/11/13 06:05:58;;;;;;;9.00;6.00;;;;;;;3.49;84.90;101228.16;107602;1251;108727;-60
2023/11/13 06:08:26;;;;;;;11.10;4.70;;;;;;;3.54;85.06;101224.86;107567;1254;97816;-60
2023/11/13 06:10:54;;;;;;;7.80;4.60;;;;;;;3.57;85.02;101227.38;107627;1251;97816;-60
2023/11/13 06:13:23;;;;;;;7.40;5.30;;;;;;;3.63;85.08;101226.54;107617;1250;112247;-61
2023/11/13 06:15:51;;;;;;;11.20;4.30;;;;;;;3.69;85.21;101225.73;107645;1250;110787;-61
2023/11/13 06:18:20;;;;;;;9.80;3.30;;;;;;;3.75;85.33;101226.08;107665;1251;107677;-60
2023/11/13 06:20:48;;;;;;;5.10;3.50;;;;;;;3.84;85.16;101235.23;107585;1250;97831;-61
2023/11/13 06:23:17;;;;;;;4.10;3.40;;;;;;;3.88;85.16;101237.14;107612;1250;97811;-61
2023/11/13 06:25:47;;;;;;;10.70;3.70;;;;;;;3.93;85.04;101241.15;107653;1251;111998;-59
2023/11/13 06:28:15;;;;;;;13.30;9.70;;;;;;;3.97;84.87;101249.59;107624;1253;109995;-60
2023/11/13 06:30:44;;;;;;;8.90;5.10;;;;;;;4.02;85.04;101253.40;107545;1253;108238;-61
2023/11/13 06:33:12;;;;;;;6.30;3.80;;;;;;;4.09;84.92;101256.27;107618;1253;97816;-61
2023/11/13 06:35:41;;;;;;;6.30;3.20;;;;;;;4.15;85.00;101249.73;107701;1251;97816;-60
2023/11/13 06:38:09;;;;;;;9.20;2.80;;;;;;;4.21;85.07;101247.64;107659;1251;111382;-61
2023/11/13 06:40:37;;;;;;;7.80;4.10;;;;;;;4.28;85.30;101244.25;107504;1251;108400;-61
2023/11/13 06:43:07;;;;;;;5.80;3.30;;;;;;;4.36;85.41;101242.37;107636;1251;109123;-61
2023/11/13 06:45:36;;;;;;;7.30;3.30;;;;;;;4.41;85.30;101239.11;107557;1252;97850;-61
2023/11/13 06:48:05;;;;;;;5.70;3.20;;;;;;;4.47;85.28;101239.13;107593;1252;97854;-61
2023/11/13 06:50:36;;;;;;;4.90;3.50;;;;;;;4.54;85.46;101238.70;107460;1253;112115;-60
2023/11/13 06:53:04;;;;;;;8.40;3.90;;;;;;;4.65;85.61;101238.46;107633;1253;109898;-59
2023/11/13 06:55:32;;;;;;;5.60;3.50;;;;;;;4.79;85.97;101239.83;107446;1257;108569;-58
2023/11/13 06:58:00;;;;;;;12.20;3.90;;;;;;;4.92;85.79;101239.61;107586;1255;98396;-58
2023/11/13 07:00:29;;;;;;;17.10;4.60;;;;;;;4.99;85.39;101238.30;107597;1253;98390;-59
2023/11/13 07:02:59;;;;;;;14.60;4.00;;;;;;;5.10;85.63;101239.10;107587;1251;111368;-59
2023/11/13 07:05:28;;;;;;;10.50;3.90;;;;;;;5.23;85.61;101237.09;107575;1251;109976;-59
2023/11/13 07:07:57;;;;;;;8.60;4.30;;;;;;;5.36;85.50;101234.43;107586;1251;108293;-59
2023/11/13 07:10:31;;;;;;;11.70;6.00;;;;;;;5.45;85.80;101234.73;107570;1253;97892;-60
2023/11/13 07:13:00;;;;;;;8.70;5.30;;;;;;;5.54;85.76;101236.54;107648;1252;97702;-62
2023/11/13 07:15:29;;;;;;;15.40;5.40;;;;;;;5.65;86.06;101243.37;107648;1251;111921;-59
2023/11/13 07:17:58;;;;;;;20.20;6.20;;;;;;;5.76;85.89;101244.33;107584;1251;109846;-60
2023/11/13 07:20:27;;;;;;;15.10;5.00;;;;;;;5.86;86.02;101242.26;107428;1253;107986;-58
2023/11/13 07:22:55;;;;;;;7.00;4.30;;;;;;;5.96;86.02;101239.69;107593;1253;97978;-60
2023/11/13 07:25:24;;;;;;;9.50;5.10;;;;;;;6.08;85.72;101240.61;107484;1253;98367;-59
2023/11/13 07:27:52;;;;;;;13.20;5.80;;;;;;;6.20;85.80;101237.52;107615;1252;111597;-59
2023/11/13 07:30:21;;;;;;;17.10;6.20;;;;;;;6.36;85.68;101239.21;107654;1251;109460;-61
2023/11/13 07:32:49;;;;;;;8.90;4.80;;;;;;;6.53;85.48;101241.71;107593;1253;108100;-60
2023/11/13 07:35:17;;;;;;;16.00;5.00;;;;;;;6.69;85.33;101242.48;107583;1250;98005;-60
2023/11/13 07:37:45;;;;;;;13.20;4.60;;;;;;;6.84;84.95;101240.95;107615;1252;98033;-58
2023/11/13 07:40:14;;;;;;;7.30;3.90;;;;;;;6.95;83.97;101245.92;107510;1253;111182;-61
2023/11/13 07:42:44;;;;;;;8.50;3.70;;;;;;;7.07;82.95;101248.52;107632;1251;109948;-59
2023/11/13 07:45:13;;;;;;;11.80;3.40;;;;;;;7.18;80.71;101247.98;107679;1250;107158;-60
2023/11/13 07:47:42;;;;;;;12.10;3.10;;;;;;;7.28;79.70;101251.30;107621;1253;97954;-60
2023/11/13 07:50:11;;;;;;;9.60;3.80;;;;;;;7.37;77.82;101247.32;107645;1253;97717;-59
2023/11/13 07:52:42;;;;;;;13.00;5.10;;;;;;;7.49;78.08;101248.95;107623;1253;111938;-61
2023/11/13 07:55:12;;;;;;;10.50;3.80;;;;;;;7.63;76.11;101251.80;107478;1251;109875;-60
2023/11/13 07:57:41;;;;;;;20.40;4.70;;;;;;;7.74;75.22;101250.51;107653;1251;107935;-59
2023/11/13 08:00:15;;;;;;;10.40;3.60;;;;;;;7.84;74.81;101250.67;107591;1251;97823;-60
2023/11/13 08:02:43;;;;;;;7.90;4.00;;;;;;;7.96;73.08;101250.39;107614;1251;97732;-59
2023/11/13 08:05:13;;;;;;;6.30;3.40;;;;;;;8.07;72.55;101246.97;107700;1251;110513;-60
2023/11/13 08:07:43;;;;;;;8.50;3.40;;;;;;;8.19;71.89;101248.45;107635;1251;108291;-59
2023/11/13 08:10:13;;;;;;;8.70;2.90;;;;;;;8.26;67.99;101249.73;107552;1251;106271;-59
2023/11/13 08:12:46;;;;;;;8.90;3.70;;;;;;;8.34;68.46;101250.46;107609;1252;97845;-59
2023/11/13 08:15:15;;;;;;;11.90;3.50;;;;;;;8.46;68.83;101248.14;107697;1253;97834;-60
2023/11/13 08:17:45;;;;;;;7.60;3.00;;;;;;;8.61;65.78;101252.32;107624;1251;110561;-60
2023/11/13 08:20:15;;;;;;;7.80;3.20;;;;;;;8.73;66.18;101254.44;107588;1251;108716;-60
2023/11/13 08:22:46;;;;;;;7.00;3.20;;;;;;;8.85;66.59;101250.36;107625;1251;107675;-59
2023/11/13 08:25:15;;;;;;;9.20;3.40;;;;;;;8.98;66.81;101246.20;107551;1251;97701;-59
2023/11/13 08:27:45;;;;;;;7.20;3.00;;;;;;;9.07;66.30;101244.30;107717;1255;97836;-59
2023/11/13 08:30:14;;;;;;;13.20;3.10;;;;;;;9.19;67.07;101243.20;107628;1252;111486;-60
2023/11/13 08:32:43;;;;;;;7.70;3.70;;;;;;;9.36;67.87;101242.63;107642;1253;109451;-60
2023/11/13 08:35:12;;;;;;;8.20;3.30;;;;;;;9.66;67.32;101239.65;107480;1251;108295;-60
2023/11/13 08:37:47;;;;;;;5.50;2.80;;;;;;;10.06;66.51;101240.31;107600;1251;97842;-61
2023/11/13 08:40:23;;;;;;;6.60;2.50;;;;;;;10.62;63.53;101235.69;107668;1251;98381;-59
2023/11/13 08:42:53;;;;;;;14.20;3.10;;;;;;;11.18;61.28;101230.73;107646;1251;110685;-60
2023/11/13 08:45:24;;;;;;;3.90;2.70;;;;;;;11.60;60.50;101229.20;107650;1251;109736;-59
2023/11/13 08:47:53;;;;;;;5.90;2.70;;;;;;;12.17;59.90;101226.96;107648;1251;107889;-60
2023/11/13 08:50:22;;;;;;;8.40;2.90;;;;;;;12.88;58.97;101228.84;107682;1251;97857;-60
2023/11/13 08:52:54;;;;;;;19.20;3.00;;;;;;;13.48;54.65;101227.86;107680;1251;99588;-60
2023/11/13 08:55:23;;;;;;;4.80;2.50;;;;;;;13.91;54.50;101228.88;107638;1251;112279;-60
2023/11/13 08:57:51;;;;;;;14.60;2.40;;;;;;;14.47;52.55;101227.42;107642;1252;109640;-60
2023/11/13 09:00:20;;;;;;;10.20;2.30;;;;;;;14.91;51.10;101228.75;107584;1253;108248;-61
2023/11/13 09:02:54;;;;;;;4.10;2.20;;;;;;;15.20;51.06;101227.06;107620;1251;97923;-60
2023/11/13 09:05:25;;;;;;;9.80;3.10;;;;;;;15.51;49.73;101224.01;107629;1254;98565;-61
2023/11/13 09:07:56;;;;;;;6.50;2.30;;;;;;;15.64;49.79;101223.73;107584;1251;111965;-59
2023/11/13 09:10:27;;;;;;;7.50;2.30;;;;;;;16.00;49.72;101224.26;107603;1251;110588;-60
2023/11/13 09:13:00;;;;;;;4.20;2.00;;;;;;;16.08;48.12;101229.16;107589;1251;106688;-61
2023/11/13 09:15:31;;;;;;;9.80;2.00;;;;;;;16.10;46.31;101223.94;107544;1251;97826;-60
2023/11/13 09:18:05;;;;;;;5.30;2.40;;;;;;;16.13;47.72;101219.04;107628;1251;97826;-61
2023/11/13 09:20:34;;;;;;;6.10;2.50;;;;;;;16.17;47.65;101217.36;107588;1251;114527;-61
2023/11/13 09:23:08;;;;;;;12.90;2.60;;;;;;;16.23;46.96;101215.70;107588;1251;109239;-61
2023/11/13 09:25:37;;;;;;;5.90;2.00;;;;;;;16.32;47.28;101206.40;107553;1251;106858;-62
2023/11/13 09:28:06;;;;;;;4.80;1.90;;;;;;;16.54;45.76;101208.10;107606;1251;97895;-62
2023/11/13 09:30:36;;;;;;;2.50;1.70;;;;;;;16.54;44.93;101202.10;107572;1251;98450;-61
2023/11/13 09:33:08;;;;;;;3.20;2.00;;;;;;;16.82;46.17;101199.75;107593;1251;110924;-61
2023/11/13 09:35:37;;;;;;;18.70;3.80;;;;;;;17.35;45.87;101195.27;107616;1251;110067;-60
2023/11/13 09:38:09;;;;;;;6.60;2.00;;;;;;;17.94;45.45;101189.67;107616;1251;108247;-60
2023/11/13 09:40:37;;;;;;;8.10;1.90;;;;;;;18.49;43.99;101187.59;107554;1254;97855;-60
2023/11/13 09:43:23;;;;;;;5.00;1.60;;;;;;;18.93;39.19;101187.07;107618;1253;97868;-62
2023/11/13 09:45:52;;;;;;;2.60;1.70;;;;;;;19.04;37.54;101186.90;107603;1254;110916;-61
2023/11/13 09:48:29;;;;;;;4.00;1.60;;;;;;;19.49;40.69;101181.95;107620;1254;109251;-62
2023/11/13 09:50:57;;;;;;;3.40;1.60;;;;;;;20.14;39.23;101173.90;107638;1254;108114;-62
2023/11/13 09:53:28;;;;;;;3.10;1.60;;;;;;;20.82;37.04;101164.23;107582;1253;97905;-61
2023/11/13 09:55:58;;;;;;;2.10;0.90;;;;;;;21.21;33.44;101164.17;107576;1255;97720;-59
2023/11/13 09:58:26;;;;;;;11.50;1.20;;;;;;;21.23;33.72;101159.42;107578;1253;111454;-61
2023/11/13 10:00:56;;;;;;;3.40;1.50;;;;;;;21.39;34.06;101155.63;107618;1251;109848;-61
2023/11/13 10:03:25;;;;;;;4.60;1.70;;;;;;;21.51;34.14;101154.46;107690;1252;106509;-61
2023/11/13 10:05:53;;;;;;;4.60;1.30;;;;;;;21.65;34.29;101152.94;107563;1253;98450;-59
2023/11/13 10:08:24;;;;;;;9.60;1.90;;;;;;;22.10;34.82;101147.29;107626;1251;98462;-61
2023/11/13 10:10:53;;;;;;;5.80;1.70;;;;;;;22.69;34.42;101139.27;107619;1254;112018;-60
2023/11/13 10:13:23;;;;;;;2.30;0.70;;;;;;;23.14;32.64;101140.98;107377;1251;411135;-61
2023/11/13 10:15:53;;;;;;;2.40;1.10;;;;;;;23.58;31.53;101135.73;107570;1251;108226;-61
2023/11/13 10:18:26;;;;;;;2.90;1.50;;;;;;;24.00;29.30;101125.77;107631;1252;97842;-62
2023/11/13 10:21:00;;;;;;;4.80;1.40;;;;;;;24.38;29.72;101123.02;107639;1250;97719;-61
2023/11/13 10:23:36;;;;;;;6.10;1.50;;;;;;;24.65;29.58;101124.23;107754;1251;111719;-61
2023/11/13 10:26:04;;;;;;;2.10;1.30;;;;;;;25.06;29.49;101115.80;107656;1250;109357;-61
2023/11/13 10:28:37;;;;;;;4.10;1.50;;;;;;;25.55;28.81;101117.66;107662;1252;108421;-60
2023/11/13 10:31:12;;;;;;;2.80;1.10;;;;;;;25.74;25.49;101124.25;107558;1253;97819;-62
2023/11/13 10:33:59;;;;;;;1.60;0.50;;;;;;;25.70;25.36;101121.70;107479;1253;98367;-61
2023/11/13 10:36:28;;;;;;;2.60;0.60;;;;;;;25.84;25.72;101115.91;107612;1255;111758;-65
2023/11/13 10:39:07;;;;;;;3.40;0.70;;;;;;;26.05;26.26;101112.61;107621;1253;109866;-61
2023/11/13 10:41:46;;;;;;;1.00;0.90;;;;;;;26.40;24.12;101108.91;107707;1252;107227;-61
2023/11/13 10:44:22;;;;;;;1.90;0.80;;;;;;;26.38;24.69;101108.96;107602;1250;97904;-60
2023/11/13 10:46:50;;;;;;;1.80;0.40;;;;;;;26.76;25.46;101105.54;107544;1252;97814;-61
2023/11/13 10:49:19;;;;;;;1.20;0.40;;;;;;;27.05;24.31;101103.21;107605;1253;112252;-61
2023/11/13 10:51:51;;;;;;;6.00;0.60;;;;;;;26.95;23.44;101100.31;107478;1252;109297;-61
2023/11/13 10:54:23;;;;;;;2.50;0.90;;;;;;;26.89;23.19;101101.23;107557;1253;106865;-62
2023/11/13 10:56:54;;;;;;;4.60;0.70;;;;;;;26.96;22.96;101098.78;107603;1252;97864;-62
2023/11/13 10:59:23;;;;;;;5.40;1.00;;;;;;;27.12;23.05;101089.80;107615;1255;98618;-62
2023/11/13 11:01:53;;;;;;;3.40;0.90;;;;;;;26.99;22.25;101094.98;107591;1253;111289;-61
2023/11/13 11:04:22;;;;;;;0.80;0.70;;;;;;;26.83;23.01;101091.56;107570;1253;111398;-61
2023/11/13 11:06:52;;;;;;;5.40;0.80;;;;;;;27.10;23.53;101082.66;107580;1255;107572;-63
2023/11/13 11:09:20;;;;;;;0.70;0.40;;;;;;;27.51;24.01;101081.48;107587;1252;97858;-61
2023/11/13 11:11:50;;;;;;;1.10;0.80;;;;;;;27.71;22.67;101075.85;107516;1251;98364;-62
2023/11/13 11:14:35;;;;;;;8.00;1.10;;;;;;;27.68;23.10;101073.27;107640;1251;111447;-61
2023/11/13 11:17:15;;;;;;;2.00;1.00;;;;;;;27.69;23.55;101069.94;107605;1253;109726;-61
2023/11/13 11:19:47;;;;;;;1.80;0.90;;;;;;;27.63;23.11;101063.00;107567;1253;108784;-62
2023/11/13 11:22:42;;;;;;;1.50;0.70;;;;;;;27.50;22.96;101059.30;107473;1253;97945;-62
2023/11/13 11:25:30;;;;;;;2.20;0.80;;;;;;;27.28;22.29;101057.95;107593;1255;98364;-61
2023/11/13 11:27:59;;;;;;;2.10;0.70;;;;;;;26.87;22.71;101067.77;107601;1252;111946;-61